Time,TemperatureF,DewpointF,PressureIn,WindDirection,WindDirectionDegrees,WindSpeedMPH,WindSpeedGustMPH,Humidity,HourlyPrecipIn,Conditions,Clouds,dailyrainin,SoftwareType,DateUTC
2017-11-22 00:02:00,36.7,27.0,30.43,East,90,4.0,-999.0,69,0.00,,,0.00,,2017-11-22 07:02:00,
2017-11-22 00:08:00,38.7,28.0,30.46,East,90,5.0,-999.0,65,0.00,,,0.00,,2017-11-22 07:08:00,
2017-11-22 00:15:00,39.4,28.0,30.46,NE,45,4.0,-999.0,65,0.00,,,0.00,,2017-11-22 07:15:00,
2017-11-22 00:32:00,38.0,28.0,30.49,East,90,4.0,-999.0,66,0.00,,,0.00,,2017-11-22 07:32:00,
2017-11-22 00:54:00,39.5,28.0,30.48,NW,315,4.0,-999.0,63,0.00,,,0.00,,2017-11-22 07:54:00,
2017-11-22 01:00:00,38.7,28.0,30.47,NNE,23,2.0,-999.0,65,0.00,,,0.00,,2017-11-22 08:00:00,
2017-11-22 01:06:00,38.2,27.0,30.45,ESE,113,2.0,-999.0,65,0.00,,,0.00,,2017-11-22 08:06:00,
2017-11-22 01:11:00,37.2,27.0,30.42,East,90,4.0,-999.0,68,0.00,,,0.00,,2017-11-22 08:11:00,
2017-11-22 01:17:00,36.5,27.0,30.47,ENE,68,3.0,-999.0,69,0.00,,,0.00,,2017-11-22 08:17:00,
2017-11-22 01:23:00,37.8,27.0,30.43,ENE,68,3.0,-999.0,66,0.00,,,0.00,,2017-11-22 08:23:00,
2017-11-22 01:30:00,38.4,27.0,30.44,East,90,4.0,-999.0,65,0.00,,,0.00,,2017-11-22 08:30:00,
2017-11-22 01:35:00,37.8,27.0,30.45,East,90,5.0,-999.0,65,0.00,,,0.00,,2017-11-22 08:35:00,
2017-11-22 01:41:00,36.2,26.0,30.43,ENE,68,4.0,-999.0,68,0.00,,,0.00,,2017-11-22 08:41:00,
2017-11-22 01:47:00,36.7,27.0,30.43,East,90,5.0,-999.0,69,0.00,,,0.00,,2017-11-22 08:47:00,
2017-11-22 01:53:00,36.2,27.0,30.43,East,90,4.0,-999.0,69,0.00,,,0.00,,2017-11-22 08:53:00,
2017-11-22 01:58:00,38.0,27.0,30.49,ENE,68,4.0,-999.0,65,0.00,,,0.00,,2017-11-22 08:58:00,
2017-11-22 02:03:00,37.5,26.0,30.44,East,90,4.0,-999.0,65,0.00,,,0.00,,2017-11-22 09:03:00,
2017-11-22 02:38:00,37.2,28.0,30.48,NE,45,6.0,-999.0,70,0.00,,,0.00,,2017-11-22 09:38:00,
2017-11-22 02:43:00,37.5,28.0,30.47,NE,45,7.0,-999.0,70,0.00,,,0.00,,2017-11-22 09:43:00,
2017-11-22 02:56:00,37.0,28.0,30.49,ENE,68,7.0,-999.0,70,0.00,,,0.00,,2017-11-22 09:56:00,
2017-11-22 03:07:00,37.0,28.0,30.49,East,90,7.0,-999.0,70,0.00,,,0.00,,2017-11-22 10:07:00,
2017-11-22 03:23:00,35.0,26.0,30.46,East,90,5.0,-999.0,70,0.00,,,0.00,,2017-11-22 10:23:00,
2017-11-22 03:46:00,36.7,27.0,30.45,ENE,68,3.0,-999.0,70,0.00,,,0.00,,2017-11-22 10:46:00,
2017-11-22 03:52:00,36.9,28.0,30.49,NE,45,3.0,-999.0,70,0.00,,,0.00,,2017-11-22 10:52:00,
2017-11-22 03:57:00,37.4,28.0,30.45,NE,45,2.0,-999.0,70,0.00,,,0.00,,2017-11-22 10:57:00,
2017-11-22 04:04:00,37.2,28.0,31.02,ENE,68,5.0,-999.0,70,0.00,,,0.00,,2017-11-22 11:04:00,
2017-11-22 04:10:00,35.9,28.0,30.45,NE,45,6.0,-999.0,73,0.00,,,0.00,,2017-11-22 11:10:00,
2017-11-22 04:18:00,35.9,27.0,31.00,ENE,68,3.0,-999.0,71,0.00,,,0.00,,2017-11-22 11:18:00,
2017-11-22 04:24:00,36.2,28.0,31.03,ENE,68,4.0,-999.0,71,0.00,,,0.00,,2017-11-22 11:24:00,
2017-11-22 04:31:00,36.2,28.0,30.45,East,90,4.0,-999.0,71,0.00,,,0.00,,2017-11-22 11:31:00,
2017-11-22 04:42:00,35.5,27.0,30.47,East,90,2.0,-999.0,73,0.00,,,0.00,,2017-11-22 11:42:00,
2017-11-22 04:49:00,34.5,26.0,30.43,ESE,113,2.0,-999.0,73,0.00,,,0.00,,2017-11-22 11:49:00,
2017-11-22 04:54:00,33.8,26.0,30.46,South,180,0.0,-999.0,75,0.00,,,0.00,,2017-11-22 11:54:00,
2017-11-22 05:00:00,33.8,27.0,30.46,East,90,2.0,-999.0,75,0.00,,,0.00,,2017-11-22 12:00:00,
2017-11-22 05:06:00,34.2,27.0,30.45,ENE,68,3.0,-999.0,75,0.00,,,0.00,,2017-11-22 12:06:00,
2017-11-22 05:25:00,35.9,27.0,30.50,NNE,23,4.0,-999.0,71,0.00,,,0.00,,2017-11-22 12:25:00,
2017-11-22 05:31:00,35.1,27.0,30.47,North,0,5.0,-999.0,74,0.00,,,0.00,,2017-11-22 12:31:00,
2017-11-22 05:37:00,35.1,27.0,30.45,North,0,4.0,-999.0,73,0.00,,,0.00,,2017-11-22 12:37:00,
2017-11-22 05:44:00,35.0,27.0,30.44,NNE,23,4.0,-999.0,73,0.00,,,0.00,,2017-11-22 12:44:00,
2017-11-22 05:50:00,35.7,27.0,30.44,NE,45,4.0,-999.0,73,0.00,,,0.00,,2017-11-22 12:50:00,
2017-11-22 05:57:00,35.9,27.0,30.45,NE,45,4.0,-999.0,71,0.00,,,0.00,,2017-11-22 12:57:00,
2017-11-22 06:04:00,35.9,27.0,30.46,NE,45,4.0,-999.0,70,0.00,,,0.00,,2017-11-22 13:04:00,
2017-11-22 06:13:00,35.9,27.0,30.48,ENE,68,4.0,-999.0,70,0.00,,,0.00,,2017-11-22 13:13:00,
2017-11-22 06:22:00,36.2,28.0,30.50,NE,45,3.0,-999.0,73,0.00,,,0.00,,2017-11-22 13:22:00,
2017-11-22 06:27:00,35.1,27.0,30.49,NE,45,4.0,-999.0,74,0.00,,,0.00,,2017-11-22 13:27:00,
2017-11-22 06:40:00,35.1,27.0,30.45,East,90,2.0,-999.0,74,0.00,,,0.00,,2017-11-22 13:40:00,
2017-11-22 06:46:00,34.2,26.0,30.44,East,90,4.0,-999.0,74,0.00,,,0.00,,2017-11-22 13:46:00,
2017-11-22 06:54:00,34.0,27.0,31.02,ENE,68,4.0,-999.0,78,0.00,,,0.00,,2017-11-22 13:54:00,
2017-11-22 07:01:00,34.9,27.0,30.47,ENE,68,3.0,-999.0,75,0.00,,,0.00,,2017-11-22 14:01:00,
2017-11-22 07:14:00,34.2,27.0,30.49,ENE,68,6.0,-999.0,75,0.00,,,0.00,,2017-11-22 14:14:00,
2017-11-22 07:19:00,36.1,28.0,30.48,ENE,68,4.0,-999.0,74,0.00,,,0.00,,2017-11-22 14:19:00,
2017-11-22 07:24:00,36.7,28.0,30.46,East,90,3.0,-999.0,71,0.00,,,0.00,,2017-11-22 14:24:00,
2017-11-22 07:30:00,35.1,27.0,30.47,East,90,5.0,-999.0,73,0.00,,,0.00,,2017-11-22 14:30:00,
2017-11-22 07:46:00,36.1,28.0,30.53,East,90,4.0,-999.0,73,0.00,,,0.00,,2017-11-22 14:46:00,
2017-11-22 08:02:00,35.5,28.0,30.49,ESE,113,4.0,-999.0,75,0.00,,,0.00,,2017-11-22 15:02:00,
2017-11-22 08:07:00,36.2,29.0,30.49,ENE,68,2.0,-999.0,75,0.00,,,0.00,,2017-11-22 15:07:00,
2017-11-22 08:14:00,37.5,30.0,30.53,SSW,203,0.0,-999.0,74,0.00,,,0.00,,2017-11-22 15:14:00,
2017-11-22 08:21:00,39.0,30.0,30.48,West,270,0.0,-999.0,71,0.00,,,0.00,,2017-11-22 15:21:00,
2017-11-22 08:27:00,39.5,30.0,30.49,North,0,3.0,-999.0,70,0.00,,,0.00,,2017-11-22 15:27:00,
2017-11-22 08:38:00,42.4,31.0,30.51,NW,315,3.0,-999.0,63,0.00,,,0.00,,2017-11-22 15:38:00,
2017-11-22 08:46:00,42.4,30.0,30.52,NW,315,4.0,-999.0,61,0.00,,,0.00,,2017-11-22 15:46:00,
2017-11-22 08:51:00,42.5,30.0,30.49,North,0,2.0,-999.0,61,0.00,,,0.00,,2017-11-22 15:51:00,
2017-11-22 08:57:00,43.9,30.0,30.52,SSE,158,0.0,-999.0,60,0.00,,,0.00,,2017-11-22 15:57:00,
2017-11-22 09:14:00,45.9,32.0,30.50,South,180,3.0,-999.0,59,0.00,,,0.00,,2017-11-22 16:14:00,
2017-11-22 09:25:00,44.8,31.0,30.49,West,270,0.0,-999.0,60,0.00,,,0.00,,2017-11-22 16:25:00,
2017-11-22 09:31:00,45.5,32.0,30.50,WSW,248,0.0,-999.0,60,0.00,,,0.00,,2017-11-22 16:31:00,
2017-11-22 09:41:00,44.6,31.0,30.49,WNW,293,4.0,-999.0,61,0.00,,,0.00,,2017-11-22 16:41:00,
2017-11-22 09:47:00,45.0,32.0,30.53,NW,315,4.0,-999.0,61,0.00,,,0.00,,2017-11-22 16:47:00,
2017-11-22 09:52:00,45.0,31.0,30.48,NNE,23,3.0,-999.0,59,0.00,,,0.00,,2017-11-22 16:52:00,
2017-11-22 09:58:00,46.1,32.0,30.50,SW,225,3.0,-999.0,58,0.00,,,0.00,,2017-11-22 16:58:00,
2017-11-22 10:03:00,47.1,32.0,30.53,SW,225,6.0,-999.0,56,0.00,,,0.00,,2017-11-22 17:03:00,
2017-11-22 10:11:00,46.5,32.0,30.50,SW,225,3.0,-999.0,56,0.00,,,0.00,,2017-11-22 17:11:00,
2017-11-22 10:17:00,46.4,31.0,30.49,SW,225,3.0,-999.0,56,0.00,,,0.00,,2017-11-22 17:17:00,
2017-11-22 10:23:00,46.7,32.0,30.49,SE,135,0.0,-999.0,56,0.00,,,0.00,,2017-11-22 17:23:00,
2017-11-22 10:36:00,46.7,31.0,30.50,North,0,1.0,-999.0,55,0.00,,,0.00,,2017-11-22 17:36:00,
2017-11-22 10:42:00,46.5,31.0,30.52,NE,45,1.0,-999.0,55,0.00,,,0.00,,2017-11-22 17:42:00,
2017-11-22 10:53:00,50.1,32.0,31.04,WSW,248,3.0,-999.0,50,0.00,,,0.00,,2017-11-22 17:53:00,
2017-11-22 11:03:00,48.2,31.0,30.49,NW,315,4.0,-999.0,53,0.00,,,0.00,,2017-11-22 18:03:00,
2017-11-22 11:09:00,48.9,31.0,31.04,WNW,293,5.0,-999.0,50,0.00,,,0.00,,2017-11-22 18:09:00,
2017-11-22 11:16:00,48.6,31.0,30.48,West,270,3.0,-999.0,50,0.00,,,0.00,,2017-11-22 18:16:00,
2017-11-22 11:24:00,50.0,32.0,30.46,SSW,203,3.0,-999.0,50,0.00,,,0.00,,2017-11-22 18:24:00,
2017-11-22 11:30:00,50.9,32.0,30.52,West,270,2.0,-999.0,50,0.00,,,0.00,,2017-11-22 18:30:00,
2017-11-22 11:42:00,52.5,32.0,30.48,South,180,4.0,-999.0,46,0.00,,,0.00,,2017-11-22 18:42:00,
2017-11-22 11:55:00,51.9,32.0,30.47,West,270,3.0,-999.0,48,0.00,,,0.00,,2017-11-22 18:55:00,
2017-11-22 12:04:00,51.8,32.0,30.44,NE,45,1.0,-999.0,48,0.00,,,0.00,,2017-11-22 19:04:00,
2017-11-22 12:09:00,53.2,33.0,30.45,West,270,2.0,-999.0,46,0.00,,,0.00,,2017-11-22 19:09:00,
2017-11-22 12:15:00,52.5,32.0,31.01,WNW,293,2.0,-999.0,46,0.00,,,0.00,,2017-11-22 19:15:00,
2017-11-22 12:21:00,54.7,33.0,30.45,West,270,4.0,-999.0,45,0.00,,,0.00,,2017-11-22 19:21:00,
2017-11-22 12:27:00,55.1,33.0,30.46,SW,225,3.0,-999.0,44,0.00,,,0.00,,2017-11-22 19:27:00,
2017-11-22 12:32:00,56.9,34.0,30.47,SW,225,4.0,-999.0,41,0.00,,,0.00,,2017-11-22 19:32:00,
2017-11-22 12:55:00,57.8,34.0,30.42,SW,225,4.0,-999.0,40,0.00,,,0.00,,2017-11-22 19:55:00,
2017-11-22 13:02:00,57.2,33.0,30.95,SE,135,4.0,-999.0,40,0.00,,,0.00,,2017-11-22 20:02:00,
2017-11-22 13:10:00,57.8,34.0,30.44,WSW,248,5.0,-999.0,40,0.00,,,0.00,,2017-11-22 20:10:00,
2017-11-22 13:15:00,57.3,33.0,30.42,SW,225,4.0,-999.0,40,0.00,,,0.00,,2017-11-22 20:15:00,
2017-11-22 13:22:00,57.3,33.0,31.01,SW,225,6.0,-999.0,40,0.00,,,0.00,,2017-11-22 20:22:00,
2017-11-22 13:34:00,59.0,34.0,30.40,WSW,248,2.0,-999.0,40,0.00,,,0.00,,2017-11-22 20:34:00,
2017-11-22 13:56:00,62.1,35.0,30.40,SW,225,2.0,-999.0,37,0.00,,,0.00,,2017-11-22 20:56:00,
2017-11-22 14:04:00,61.5,34.0,30.41,SSW,203,2.0,-999.0,37,0.00,,,0.00,,2017-11-22 21:04:00,
2017-11-22 14:11:00,61.9,35.0,30.43,SW,225,5.0,-999.0,37,0.00,,,0.00,,2017-11-22 21:11:00,
2017-11-22 14:18:00,61.3,34.0,30.44,SW,225,7.0,-999.0,37,0.00,,,0.00,,2017-11-22 21:18:00,
2017-11-22 14:23:00,59.7,34.0,30.39,WSW,248,5.0,-999.0,39,0.00,,,0.00,,2017-11-22 21:23:00,
2017-11-22 14:35:00,59.7,34.0,30.42,WSW,248,3.0,-999.0,39,0.00,,,0.00,,2017-11-22 21:35:00,
2017-11-22 14:42:00,59.7,34.0,30.41,WSW,248,4.0,-999.0,39,0.00,,,0.00,,2017-11-22 21:42:00,
2017-11-22 14:54:00,59.9,34.0,30.40,SSW,203,2.0,-999.0,39,0.00,,,0.00,,2017-11-22 21:54:00,
2017-11-22 14:59:00,59.3,34.0,30.43,West,270,2.0,-999.0,39,0.00,,,0.00,,2017-11-22 21:59:00,
2017-11-22 15:24:00,59.9,35.0,30.94,SSW,203,2.0,-999.0,40,0.00,,,0.00,,2017-11-22 22:24:00,
2017-11-22 15:33:00,60.0,35.0,30.37,West,270,7.0,-999.0,39,0.00,,,0.00,,2017-11-22 22:33:00,
2017-11-22 15:52:00,58.0,34.0,30.39,SW,225,3.0,-999.0,40,0.00,,,0.00,,2017-11-22 22:52:00,
2017-11-22 16:00:00,57.8,34.0,30.42,NW,315,2.0,-999.0,40,0.00,,,0.00,,2017-11-22 23:00:00,
2017-11-22 16:12:00,56.9,34.0,30.43,SW,225,1.0,-999.0,41,0.00,,,0.00,,2017-11-22 23:12:00,
2017-11-22 16:33:00,58.2,34.0,30.43,NW,315,0.0,-999.0,40,0.00,,,0.00,,2017-11-22 23:33:00,
2017-11-22 16:42:00,58.5,34.0,30.40,ESE,113,1.0,-999.0,40,0.00,,,0.00,,2017-11-22 23:42:00,
2017-11-22 16:48:00,58.2,34.0,30.38,East,90,2.0,-999.0,40,0.00,,,0.00,,2017-11-22 23:48:00,
2017-11-22 17:14:00,50.5,32.0,30.43,ENE,68,4.0,-999.0,50,0.00,,,0.00,,2017-11-23 00:14:00,
2017-11-22 17:25:00,52.3,33.0,30.42,East,90,4.0,-999.0,49,0.00,,,0.00,,2017-11-23 00:25:00,
2017-11-22 17:35:00,52.5,33.0,30.41,East,90,3.0,-999.0,48,0.00,,,0.00,,2017-11-23 00:35:00,